aviador You're here:

KHEI Decoded Metar

HETTINGER in ND, USA
Report Time2018-01-21 17:53:00
UTC Time2018-01-21 18:22:06
Flight Rules vfr VFR
Wind270° at 04 kt
W.Decomp.*RWY 30: 3.2 kt HW 2.5 kt LCW
RWY 35: 0.1 kt HW 4 kt LCW
W.Rank270° ranks 11
Current wind is below 270° avg. (10.1)
Visibility9999 m
Phenomena:N/A
Clouds:Few 120 Hf
Expected CloudBase > 1,600 ft AGL from Temp-Dew spread
CeilingNone
Temp-3°C (ISA -13)
Dew Point-7°C (74% RH)
AAT-7.2°C
QNH1017 hPa
Density Alt1,099 ft
Elevation2,717 ft
Report Wrong Elevation
Raw Report
METAR KHEI 211753Z AUTO 27004KT 10SM FEW120 M03/M07 A3003 RMK AO2 SLP202
T10281067 11028 21089 50007=

Extra information for KHEI:More info

Metar Taf Metar & Taf Last 4 Metars F.Rules Stats Wind Profile Meteogram Temp Stats Airport Information Weather charts Add Link Nearby VenuesMetar ALERT Operation Metar Decoded Social comments

AIRNAV info for KHEI